createdAt,value
2019-04-06T00:00:09.665Z,10.55
2019-04-06T00:02:39.976Z,10.43
2019-04-06T00:05:09.671Z,10.46
2019-04-06T00:07:38.655Z,10.32
2019-04-06T00:10:07.740Z,10.31
2019-04-06T00:12:36.536Z,10.36
2019-04-06T00:15:07.176Z,10.22
2019-04-06T00:17:35.938Z,10.08
2019-04-06T00:20:07.160Z,9.66
2019-04-06T00:22:36.095Z,9.09
2019-04-06T00:25:06.597Z,9.03
2019-04-06T00:27:35.417Z,8.91
2019-04-06T00:30:05.777Z,8.98
2019-04-06T00:32:36.096Z,8.95
2019-04-06T00:35:06.055Z,9.24
2019-04-06T00:37:34.896Z,9.13
2019-04-06T00:40:04.700Z,9.02
2019-04-06T00:42:33.496Z,8.84
2019-04-06T00:45:02.349Z,8.79
2019-04-06T00:47:31.236Z,8.49
2019-04-06T00:50:00.101Z,8.02
2019-04-06T00:52:28.935Z,8.07
2019-04-06T00:54:57.737Z,8.10
2019-04-06T00:57:27.502Z,7.92
2019-04-06T00:59:56.336Z,7.71
2019-04-06T01:02:25.096Z,7.87
2019-04-06T01:04:53.896Z,8.09
2019-04-06T01:07:23.248Z,7.84
2019-04-06T01:09:52.298Z,7.87
2019-04-06T01:12:21.097Z,7.98
2019-04-06T01:14:49.935Z,8.10
2019-04-06T01:17:18.705Z,8.18
2019-04-06T01:19:47.495Z,8.28
2019-04-06T01:22:16.337Z,8.37
2019-04-06T01:24:45.099Z,8.55
2019-04-06T01:27:13.858Z,8.42
2019-04-06T01:29:42.695Z,8.06
2019-04-06T01:32:11.552Z,7.89
2019-04-06T01:34:40.379Z,7.61
2019-04-06T01:37:09.215Z,7.06
2019-04-06T01:39:38.017Z,6.91
2019-04-06T01:42:06.770Z,6.98
2019-04-06T01:44:35.617Z,7.10
2019-04-06T01:47:04.348Z,7.20
2019-04-06T01:49:33.176Z,7.33
2019-04-06T01:52:01.962Z,7.41
2019-04-06T01:54:30.777Z,7.50
2019-04-06T01:56:59.536Z,7.68
2019-04-06T01:59:28.337Z,7.62
2019-04-06T02:02:04.752Z,7.61
2019-04-06T02:04:33.657Z,7.72
2019-04-06T02:07:02.455Z,7.66
2019-04-06T02:09:31.337Z,7.62
2019-04-06T02:12:00.216Z,7.62
2019-04-06T02:14:29.032Z,7.76
2019-04-06T02:16:57.821Z,7.82
2019-04-06T02:19:26.700Z,7.99
2019-04-06T02:21:55.576Z,7.95
2019-04-06T02:24:24.504Z,7.93
2019-04-06T02:26:53.421Z,7.95
2019-04-06T02:29:22.411Z,7.99
2019-04-06T02:31:58.618Z,8.07
2019-04-06T02:34:45.427Z,8.06
2019-04-06T02:37:19.038Z,8.02
2019-04-06T02:39:52.338Z,8.19
2019-04-06T02:42:22.709Z,8.09
2019-04-06T02:44:51.621Z,7.80
2019-04-06T02:47:20.376Z,7.47
2019-04-06T02:49:49.185Z,7.39
2019-04-06T02:52:18.121Z,7.22
2019-04-06T02:54:46.977Z,7.29
2019-04-06T02:57:15.861Z,7.26
2019-04-06T02:59:44.700Z,7.48
2019-04-06T03:02:13.622Z,7.28
2019-04-06T03:04:42.701Z,7.33
2019-04-06T03:07:11.537Z,7.10
2019-04-06T03:09:40.418Z,7.02
2019-04-06T03:12:09.219Z,6.83
2019-04-06T03:14:38.456Z,6.81
2019-04-06T03:17:07.306Z,6.88
2019-04-06T03:19:36.177Z,6.95
2019-04-06T03:22:05.385Z,6.35
2019-04-06T03:24:34.460Z,6.28
2019-04-06T03:27:03.341Z,6.41
2019-04-06T03:29:32.150Z,6.36
2019-04-06T03:32:01.644Z,6.48
2019-04-06T03:34:30.539Z,6.56
2019-04-06T03:36:59.553Z,6.70
2019-04-06T03:39:28.344Z,6.85
2019-04-06T03:41:57.561Z,6.95
2019-04-06T03:44:26.422Z,6.98
2019-04-06T03:46:55.258Z,6.52
2019-04-06T03:49:24.097Z,6.18
2019-04-06T03:51:52.937Z,6.12
2019-04-06T03:54:21.888Z,6.29
2019-04-06T03:56:50.858Z,6.38
2019-04-06T03:59:19.936Z,6.38
2019-04-06T04:01:48.765Z,6.53
2019-04-06T04:04:17.619Z,6.42
2019-04-06T04:06:46.480Z,6.29
2019-04-06T04:09:15.656Z,6.10
2019-04-06T04:11:44.416Z,5.93
2019-04-06T04:14:13.255Z,5.93
2019-04-06T04:16:42.064Z,6.03
2019-04-06T04:19:10.991Z,6.16
2019-04-06T04:21:39.855Z,6.28
2019-04-06T04:24:08.618Z,6.33
2019-04-06T04:26:37.453Z,6.34
2019-04-06T04:29:06.499Z,6.43
2019-04-06T04:31:35.317Z,6.60
2019-04-06T04:34:04.179Z,6.51
2019-04-06T04:36:33.016Z,6.55
2019-04-06T04:39:02.369Z,6.39
2019-04-06T04:41:31.217Z,6.45
2019-04-06T04:44:00.057Z,6.25
2019-04-06T04:46:28.817Z,6.30
2019-04-06T04:48:57.578Z,6.19
2019-04-06T04:51:26.706Z,6.19
2019-04-06T04:53:55.496Z,6.35
2019-04-06T04:56:24.295Z,6.37
2019-04-06T04:58:53.248Z,6.40
2019-04-06T05:01:22.016Z,6.46
2019-04-06T05:03:50.857Z,6.46
2019-04-06T05:06:19.696Z,6.62
2019-04-06T05:08:48.458Z,6.73
2019-04-06T05:11:17.258Z,6.84
2019-04-06T05:13:46.096Z,6.94
2019-04-06T05:16:15.216Z,6.96
2019-04-06T05:18:44.377Z,6.98
2019-04-06T05:21:13.892Z,7.05
2019-04-06T05:23:42.695Z,7.22
2019-04-06T05:26:11.496Z,7.34
2019-04-06T05:28:40.337Z,7.46
2019-04-06T05:31:09.136Z,7.68
2019-04-06T05:33:38.151Z,7.56
2019-04-06T05:36:07.284Z,7.26
2019-04-06T05:38:36.360Z,7.18
2019-04-06T05:41:05.218Z,6.79
2019-04-06T05:43:34.146Z,6.87
2019-04-06T05:46:02.935Z,7.04
2019-04-06T05:48:31.699Z,7.22
2019-04-06T05:51:00.535Z,7.39
2019-04-06T05:53:29.300Z,7.54
2019-04-06T05:55:58.141Z,7.82
2019-04-06T05:58:27.107Z,8.06
2019-04-06T06:00:55.896Z,8.28
2019-04-06T06:03:24.655Z,8.48
2019-04-06T06:05:53.496Z,8.67
2019-04-06T06:08:22.295Z,8.84
2019-04-06T06:10:51.067Z,9.01
2019-04-06T06:13:19.896Z,9.20
2019-04-06T06:15:48.655Z,9.36
2019-04-06T06:18:25.606Z,9.52
2019-04-06T06:20:48.447Z,9.71
2019-04-06T06:23:18.838Z,9.90
2019-04-06T06:25:48.053Z,9.97
2019-04-06T06:28:19.048Z,10.06
2019-04-06T06:30:47.856Z,10.23
2019-04-06T06:33:16.939Z,10.30
2019-04-06T06:35:45.734Z,10.38
2019-04-06T06:38:14.855Z,10.52
2019-04-06T06:40:43.583Z,10.57
2019-04-06T06:43:12.455Z,10.68
2019-04-06T06:45:41.255Z,10.74
2019-04-06T06:48:10.056Z,10.73
2019-04-06T06:50:38.898Z,10.92
2019-04-06T06:53:07.611Z,10.96
2019-04-06T06:55:40.311Z,11.02
2019-04-06T06:58:09.175Z,11.07
2019-04-06T07:00:37.975Z,11.08
2019-04-06T07:03:06.819Z,11.16
2019-04-06T07:05:35.658Z,11.30
2019-04-06T07:08:04.505Z,11.45
2019-04-06T07:10:33.335Z,11.56
2019-04-06T07:13:15.424Z,11.62
2019-04-06T07:15:52.308Z,11.67
2019-04-06T07:18:22.058Z,11.77
2019-04-06T07:20:56.361Z,11.78
2019-04-06T07:23:25.496Z,11.88
2019-04-06T07:25:58.570Z,11.97
2019-04-06T07:28:36.323Z,12.17
2019-04-06T07:30:56.809Z,12.26
2019-04-06T07:33:25.616Z,12.40
2019-04-06T07:35:54.417Z,12.55
2019-04-06T07:38:23.260Z,12.72
2019-04-06T07:40:52.069Z,12.86
2019-04-06T07:43:20.817Z,13.06
2019-04-06T07:45:49.695Z,13.20
2019-04-06T07:48:18.698Z,13.25
2019-04-06T07:50:47.584Z,13.34
2019-04-06T07:53:16.417Z,13.44
2019-04-06T07:55:45.176Z,13.50
2019-04-06T07:58:13.963Z,13.64
2019-04-06T08:00:42.815Z,13.76
2019-04-06T08:03:11.575Z,13.86
2019-04-06T08:05:40.376Z,13.99
2019-04-06T08:08:09.218Z,14.17
2019-04-06T08:10:38.199Z,14.33
2019-04-06T08:13:06.975Z,14.44
2019-04-06T08:15:35.815Z,14.55
2019-04-06T08:18:04.626Z,14.52
2019-04-06T08:20:33.375Z,14.61
2019-04-06T08:23:02.218Z,14.63
2019-04-06T08:25:31.061Z,14.63
2019-04-06T08:27:59.855Z,14.65
2019-04-06T08:30:28.796Z,14.74
2019-04-06T08:32:57.626Z,14.91
2019-04-06T08:35:26.914Z,15.01
2019-04-06T08:37:55.775Z,15.20
2019-04-06T08:40:24.576Z,15.31
2019-04-06T08:42:53.384Z,15.46
2019-04-06T08:45:22.215Z,15.53
2019-04-06T08:47:51.015Z,15.70
2019-04-06T08:50:19.815Z,15.93
2019-04-06T08:52:48.655Z,16.27
2019-04-06T08:55:17.455Z,16.64
2019-04-06T08:57:46.256Z,16.76
2019-04-06T09:00:16.504Z,16.62
2019-04-06T09:02:45.375Z,16.63
2019-04-06T09:05:14.295Z,16.63
2019-04-06T09:07:43.422Z,16.78
2019-04-06T09:10:12.420Z,16.95
2019-04-06T09:12:41.225Z,17.08
2019-04-06T09:15:10.576Z,17.20
2019-04-06T09:17:39.498Z,17.41
2019-04-06T09:20:08.747Z,17.56
2019-04-06T09:22:37.626Z,17.82
2019-04-06T09:25:07.807Z,17.90
2019-04-06T09:27:36.704Z,18.04
2019-04-06T09:30:07.102Z,18.13
2019-04-06T09:32:35.935Z,18.09
2019-04-06T09:35:06.010Z,18.52
2019-04-06T09:37:41.188Z,18.77
2019-04-06T09:40:09.976Z,19.01
2019-04-06T09:42:38.788Z,19.32
2019-04-06T09:45:15.112Z,19.38
2019-04-06T09:47:46.335Z,19.23
2019-04-06T09:50:17.749Z,19.41
2019-04-06T09:52:51.159Z,19.53
2019-04-06T09:55:21.968Z,19.59
2019-04-06T09:58:08.988Z,19.71
2019-04-06T10:00:54.683Z,19.83
2019-04-06T10:03:43.495Z,20.05
2019-04-06T10:06:25.455Z,20.38
2019-04-06T10:08:58.857Z,20.59
2019-04-06T10:11:34.976Z,20.69
2019-04-06T10:14:23.859Z,21.17
2019-04-06T10:16:54.225Z,21.51
2019-04-06T10:19:39.791Z,21.68
2019-04-06T10:22:13.147Z,21.25
2019-04-06T10:24:49.573Z,19.83
2019-04-06T10:27:25.890Z,18.94
2019-04-06T10:29:56.255Z,18.65
2019-04-06T10:32:29.604Z,17.90
2019-04-06T10:35:09.281Z,17.65
2019-04-06T10:37:39.630Z,17.65
2019-04-06T10:40:12.816Z,17.30
2019-04-06T10:42:43.181Z,16.92
2019-04-06T10:45:16.498Z,16.79
2019-04-06T10:48:03.015Z,15.93
2019-04-06T10:50:36.533Z,16.38
2019-04-06T10:53:23.464Z,16.95
2019-04-06T10:55:56.944Z,16.89
2019-04-06T10:58:43.684Z,15.97
2019-04-06T11:01:19.904Z,15.87
2019-04-06T11:04:10.897Z,16.09
2019-04-06T11:06:56.977Z,16.39
2019-04-06T11:09:27.378Z,16.30
2019-04-06T11:12:00.226Z,16.69
2019-04-06T11:14:45.983Z,16.74
2019-04-06T11:17:28.416Z,16.07
2019-04-06T11:20:14.177Z,16.14
2019-04-06T11:22:44.703Z,16.03
2019-04-06T11:25:15.105Z,16.83
2019-04-06T11:27:48.336Z,16.87
2019-04-06T11:30:19.265Z,17.24
2019-04-06T11:33:05.838Z,17.97
2019-04-06T11:35:36.663Z,19.05
2019-04-06T11:38:07.102Z,18.94
2019-04-06T11:40:49.697Z,18.91
2019-04-06T11:43:35.258Z,18.49
2019-04-06T11:46:05.944Z,18.31
2019-04-06T11:48:42.219Z,19.08
2019-04-06T11:51:28.855Z,18.28
2019-04-06T11:54:05.631Z,17.97
2019-04-06T11:56:52.269Z,17.78
2019-04-06T11:59:22.898Z,17.56
2019-04-06T12:02:09.336Z,17.35
2019-04-06T12:04:45.497Z,17.60
2019-04-06T12:07:27.840Z,18.03
2019-04-06T12:10:13.407Z,18.27
2019-04-06T12:12:55.568Z,18.15
2019-04-06T12:15:36.895Z,17.69
2019-04-06T12:18:19.376Z,16.93
2019-04-06T12:21:01.943Z,16.77
2019-04-06T12:23:50.615Z,16.76
2019-04-06T12:26:26.543Z,16.75
2019-04-06T12:29:15.782Z,16.74
2019-04-06T12:32:01.655Z,16.92
2019-04-06T12:34:32.133Z,16.84
2019-04-06T12:37:19.015Z,17.26
2019-04-06T12:39:53.441Z,18.13
2019-04-06T12:42:21.644Z,17.99
2019-04-06T12:44:54.824Z,17.86
2019-04-06T12:47:41.884Z,17.33
2019-04-06T12:50:18.735Z,16.54
2019-04-06T12:52:55.335Z,16.58
2019-04-06T12:55:26.111Z,16.88
2019-04-06T12:58:13.445Z,16.94
2019-04-06T13:00:53.067Z,17.03
2019-04-06T13:03:25.896Z,17.09
2019-04-06T13:06:15.034Z,17.02
2019-04-06T13:08:45.871Z,16.86
2019-04-06T13:11:19.484Z,17.33
2019-04-06T13:13:49.387Z,17.72
2019-04-06T13:16:29.259Z,17.53
2019-04-06T13:19:03.549Z,17.93
2019-04-06T13:21:40.268Z,17.89
2019-04-06T13:24:14.948Z,17.23
2019-04-06T13:26:49.779Z,17.30
2019-04-06T13:29:21.348Z,17.57
2019-04-06T13:31:52.150Z,17.55
2019-04-06T13:34:39.370Z,17.73
2019-04-06T13:37:10.786Z,17.86
2019-04-06T13:39:58.175Z,17.69
2019-04-06T13:42:31.455Z,17.87
2019-04-06T13:45:02.628Z,17.84
2019-04-06T13:47:41.391Z,17.90
2019-04-06T13:50:21.958Z,17.57
2019-04-06T13:52:56.996Z,17.31
2019-04-06T13:55:28.240Z,17.24
2019-04-06T13:58:15.570Z,17.44
2019-04-06T14:01:13.311Z,17.82
2019-04-06T14:03:51.240Z,17.85
2019-04-06T14:06:40.046Z,18.25
2019-04-06T14:09:12.107Z,18.27
2019-04-06T14:11:58.962Z,17.98
2019-04-06T14:20:47.900Z,17.41
2019-04-06T14:23:24.150Z,17.12
2019-04-06T14:26:01.070Z,17.25
2019-04-06T14:28:35.021Z,17.06
2019-04-06T14:31:11.376Z,16.61
2019-04-06T14:33:45.152Z,16.61
2019-04-06T14:36:16.133Z,16.47
2019-04-06T14:38:47.803Z,16.41
2019-04-06T14:41:25.257Z,16.44
2019-04-06T14:44:02.269Z,16.58
2019-04-06T14:46:35.857Z,16.64
2019-04-06T14:49:28.873Z,16.34
2019-04-06T14:51:57.929Z,16.11
2019-04-06T14:54:44.392Z,16.30
2019-04-06T14:57:24.740Z,15.75
2019-04-06T14:59:55.788Z,15.39
2019-04-06T15:02:35.913Z,14.86
2019-04-06T15:05:23.940Z,14.50
2019-04-06T15:08:11.374Z,14.12
2019-04-06T15:10:45.425Z,13.86
2019-04-06T15:13:27.981Z,13.61
2019-04-06T15:16:02.068Z,13.57
2019-04-06T15:18:42.404Z,13.32
2019-04-06T15:21:28.303Z,13.26
2019-04-06T15:24:02.500Z,12.99
2019-04-06T15:26:49.721Z,12.74
2019-04-06T15:29:27.453Z,12.78
2019-04-06T15:32:04.707Z,12.86
2019-04-06T15:34:42.017Z,12.86
2019-04-06T15:37:19.298Z,12.73
2019-04-06T15:40:06.284Z,12.67
2019-04-06T15:42:37.568Z,12.46
2019-04-06T15:45:24.467Z,12.64
2019-04-06T15:47:55.505Z,12.93
2019-04-06T15:50:32.696Z,13.48
2019-04-06T15:53:03.615Z,13.78
2019-04-06T15:55:40.564Z,13.86
2019-04-06T15:58:11.758Z,13.90
2019-04-06T16:00:58.978Z,13.59
2019-04-06T16:03:41.464Z,13.73
2019-04-06T16:06:12.605Z,13.82
2019-04-06T16:08:47.256Z,13.82
2019-04-06T16:11:34.631Z,13.87
2019-04-06T16:14:22.698Z,13.75
2019-04-06T16:17:12.496Z,13.65
2019-04-06T16:19:43.415Z,13.61
2019-04-06T16:22:14.146Z,13.28
2019-04-06T16:24:51.300Z,12.96
2019-04-06T16:27:25.654Z,12.84
2019-04-06T16:30:02.698Z,12.90
2019-04-06T16:32:49.335Z,12.99
2019-04-06T16:35:35.719Z,13.02
2019-04-06T16:38:23.123Z,12.87
2019-04-06T16:41:03.627Z,12.84
2019-04-06T16:43:38.403Z,12.88
2019-04-06T16:46:21.947Z,12.72
2019-04-06T16:48:55.786Z,12.72
2019-04-06T16:51:36.556Z,12.73
2019-04-06T16:54:07.778Z,12.51
2019-04-06T16:56:41.825Z,12.46
2019-04-06T16:59:28.940Z,12.54
2019-04-06T17:02:22.060Z,12.67
2019-04-06T17:05:02.541Z,12.65
2019-04-06T17:07:36.827Z,12.62
2019-04-06T17:10:12.598Z,12.65
2019-04-06T17:12:43.655Z,12.75
2019-04-06T17:15:15.297Z,12.73
2019-04-06T17:17:46.791Z,12.64
2019-04-06T17:20:23.904Z,12.88
2019-04-06T17:22:57.736Z,13.00
2019-04-06T17:25:46.697Z,12.95
2019-04-06T17:28:34.077Z,12.76
2019-04-06T17:31:21.833Z,12.49
2019-04-06T17:33:53.195Z,12.24
2019-04-06T17:36:39.696Z,12.24
2019-04-06T17:39:28.977Z,12.26
2019-04-06T17:42:03.335Z,12.25
2019-04-06T17:44:34.867Z,12.47
2019-04-06T17:47:06.297Z,12.57
2019-04-06T17:49:40.034Z,12.44
2019-04-06T17:52:10.945Z,12.48
2019-04-06T17:54:59.007Z,12.47
2019-04-06T17:57:39.456Z,12.63
2019-04-06T18:00:27.562Z,12.72
2019-04-06T18:02:58.692Z,12.65
2019-04-06T18:05:44.938Z,12.52
2019-04-06T18:08:34.105Z,12.37
2019-04-06T18:11:11.346Z,12.40
2019-04-06T18:13:49.267Z,12.32
2019-04-06T18:16:20.874Z,12.44
2019-04-06T18:18:52.131Z,12.40
2019-04-06T18:21:21.667Z,12.16
2019-04-06T18:23:51.679Z,12.17
2019-04-06T18:26:21.858Z,12.12
2019-04-06T18:28:51.706Z,12.03
2019-04-06T18:31:23.065Z,11.91
2019-04-06T18:33:53.585Z,11.84
2019-04-06T18:36:25.373Z,11.54
2019-04-06T18:39:02.833Z,10.95
2019-04-06T18:41:32.665Z,11.12
2019-04-06T18:44:02.522Z,11.23
2019-04-06T18:46:32.797Z,11.03
2019-04-06T18:49:03.265Z,11.14
2019-04-06T18:51:32.812Z,10.98
2019-04-06T18:54:03.046Z,11.05
2019-04-06T18:56:32.867Z,11.01
2019-04-06T18:59:02.945Z,11.08
2019-04-06T19:01:32.781Z,11.10
2019-04-06T19:04:02.483Z,11.11
2019-04-06T19:06:32.602Z,11.16
2019-04-06T19:09:01.998Z,11.17
2019-04-06T19:11:31.612Z,11.29
2019-04-06T19:14:01.225Z,11.27
2019-04-06T19:16:31.189Z,11.29
2019-04-06T19:19:01.378Z,11.24
2019-04-06T19:21:32.094Z,11.22
2019-04-06T19:24:02.305Z,11.25
2019-04-06T19:26:32.234Z,11.27
2019-04-06T19:29:02.770Z,11.31
2019-04-06T19:31:32.698Z,11.27
2019-04-06T19:34:02.584Z,11.19
2019-04-06T19:36:32.084Z,11.25
2019-04-06T19:39:01.381Z,11.25
2019-04-06T19:41:31.506Z,11.08
2019-04-06T19:44:01.402Z,10.86
2019-04-06T19:46:30.948Z,10.70
2019-04-06T19:49:01.187Z,10.66
2019-04-06T19:51:30.901Z,10.65
2019-04-06T19:54:00.432Z,10.51
2019-04-06T19:56:30.386Z,10.55
2019-04-06T19:58:59.947Z,10.50
2019-04-06T20:01:29.785Z,10.44
2019-04-06T20:03:59.617Z,10.37
2019-04-06T20:06:29.708Z,10.34
2019-04-06T20:08:59.490Z,10.23
2019-04-06T20:11:29.905Z,9.94
2019-04-06T20:13:59.257Z,9.74
2019-04-06T20:16:28.655Z,9.71
2019-04-06T20:18:58.639Z,9.61
2019-04-06T20:21:29.668Z,9.67
2019-04-06T20:23:59.096Z,9.53
2019-04-06T20:26:32.237Z,9.53
2019-04-06T20:29:01.585Z,9.57
2019-04-06T20:31:30.895Z,9.59
2019-04-06T20:34:00.903Z,9.57
2019-04-06T20:36:32.356Z,9.58
2019-04-06T20:39:02.027Z,9.73
2019-04-06T20:41:32.133Z,9.73
2019-04-06T20:44:01.655Z,9.67
2019-04-06T20:46:31.892Z,9.71
2019-04-06T20:49:01.140Z,9.80
2019-04-06T20:51:31.605Z,9.81
2019-04-06T20:54:01.435Z,9.83
2019-04-06T20:56:31.526Z,9.88
2019-04-06T20:59:01.527Z,9.90
2019-04-06T21:01:31.495Z,9.99
2019-04-06T21:04:03.034Z,9.95
2019-04-06T21:06:33.434Z,9.90
2019-04-06T21:09:03.263Z,9.91
2019-04-06T21:11:32.776Z,9.92
2019-04-06T21:14:03.339Z,9.90
2019-04-06T21:16:33.164Z,9.92
2019-04-06T21:19:02.619Z,9.87
2019-04-06T21:21:32.650Z,9.97
2019-04-06T21:24:02.554Z,9.88
2019-04-06T21:26:32.525Z,9.69
2019-04-06T21:29:02.560Z,9.59
2019-04-06T21:31:32.098Z,9.49
2019-04-06T21:34:10.560Z,9.48
2019-04-06T21:36:33.443Z,9.54
2019-04-06T21:39:03.057Z,9.70
2019-04-06T21:41:32.971Z,9.87
2019-04-06T21:44:03.334Z,9.86
2019-04-06T21:46:33.644Z,9.92
2019-04-06T21:49:03.554Z,9.97
2019-04-06T21:51:33.145Z,9.98
2019-04-06T21:54:03.132Z,9.92
2019-04-06T21:56:32.835Z,9.93
2019-04-06T21:59:02.819Z,10.07
2019-04-06T22:01:33.103Z,10.02
2019-04-06T22:04:03.147Z,9.85
2019-04-06T22:06:32.688Z,9.71
2019-04-06T22:09:02.765Z,9.61
2019-04-06T22:11:33.211Z,9.55
2019-04-06T22:14:02.469Z,9.53
2019-04-06T22:16:32.552Z,9.66
2019-04-06T22:19:01.988Z,9.19
2019-04-06T22:21:32.069Z,9.16
2019-04-06T22:24:01.511Z,8.75
2019-04-06T22:26:30.899Z,8.42
2019-04-06T22:29:00.545Z,8.36
2019-04-06T22:31:30.745Z,8.55
2019-04-06T22:34:00.465Z,8.61
2019-04-06T22:36:29.855Z,8.68
2019-04-06T22:38:59.426Z,8.73
2019-04-06T22:41:28.985Z,8.77
2019-04-06T22:43:58.245Z,8.64
2019-04-06T22:46:27.924Z,8.61
2019-04-06T22:48:57.502Z,8.60
2019-04-06T22:51:27.342Z,8.64
2019-04-06T22:53:56.968Z,8.61
2019-04-06T22:56:26.375Z,8.58
2019-04-06T22:58:55.855Z,8.54
2019-04-06T23:01:26.712Z,8.56
2019-04-06T23:04:17.101Z,8.54
2019-04-06T23:06:55.152Z,8.47
2019-04-06T23:09:24.865Z,8.50
2019-04-06T23:11:54.457Z,8.43
2019-04-06T23:14:24.017Z,8.51
2019-04-06T23:16:54.060Z,8.45
2019-04-06T23:19:23.897Z,8.38
2019-04-06T23:21:53.456Z,8.33
2019-04-06T23:24:22.935Z,8.25
2019-04-06T23:26:52.987Z,8.18
2019-04-06T23:29:22.215Z,8.03
2019-04-06T23:31:52.140Z,8.13
2019-04-06T23:34:21.955Z,8.05
2019-04-06T23:36:52.214Z,8.12
2019-04-06T23:39:22.867Z,7.81
2019-04-06T23:41:52.175Z,7.51
2019-04-06T23:44:21.697Z,7.32
2019-04-06T23:46:51.182Z,6.82
2019-04-06T23:49:20.771Z,6.75
2019-04-06T23:51:50.803Z,6.89
2019-04-06T23:54:20.510Z,6.98
2019-04-06T23:56:51.250Z,6.80
2019-04-06T23:59:20.993Z,6.71
